Time;durP1;ratioP1;P1;durP2;ratioP2;P2;SDS_P1;SDS_P2;PMS_P1;PMS_P2;Temp;Humidity;BMP_temperature;BMP_pressure;BME280_temperature;BME280_humidity;BME280_pressure;Samples;Min_cycle;Max_cycle;Signal;HPM_P1;HPM_P2
2023/02/09 00:00:23;;;;;;;31.98;13.30;;;;;;;-2.19;59.04;102342.66;5217806;27;20081;-90
2023/02/09 00:02:49;;;;;;;35.05;14.55;;;;;;;-2.26;59.04;102340.53;5235987;27;20085;-89
2023/02/09 00:05:17;;;;;;;31.05;13.20;;;;;;;-2.22;59.04;102340.81;5219471;27;20102;-88
2023/02/09 00:07:42;;;;;;;31.33;12.73;;;;;;;-2.23;59.04;102341.59;5236231;27;20089;-90
2023/02/09 00:10:09;;;;;;;35.47;13.73;;;;;;;-2.18;59.04;102339.31;5218443;27;20412;-88
2023/02/09 00:15:23;;;;;;;28.25;12.23;;;;;;;-2.26;59.03;102330.31;5206606;27;20753;-89
2023/02/09 00:17:49;;;;;;;33.88;12.70;;;;;;;-2.23;59.04;102341.59;5235684;27;20050;-88
2023/02/09 00:20:15;;;;;;;30.27;13.50;;;;;;;-1.94;59.06;102338.25;5253407;27;20054;-89
2023/02/09 00:22:41;;;;;;;30.73;13.02;;;;;;;-2.18;59.04;102335.09;5253298;27;20067;-87
2023/02/09 00:25:07;;;;;;;26.85;11.68;;;;;;;-2.43;59.03;102333.50;5218373;27;20069;-89
2023/02/09 00:27:34;;;;;;;28.12;10.32;;;;;;;-2.53;59.02;102342.25;5219026;27;20054;-91
2023/02/09 00:30:00;;;;;;;25.95;11.20;;;;;;;-2.65;59.01;102337.25;5218524;27;20058;-89
2023/02/09 00:32:26;;;;;;;27.80;11.12;;;;;;;-2.56;59.02;102336.97;5218641;27;20065;-89
2023/02/09 00:34:51;;;;;;;27.95;10.07;;;;;;;-2.44;59.03;102330.06;5254677;27;20058;-90
2023/02/09 00:37:17;;;;;;;28.65;11.65;;;;;;;-2.83;59.00;102338.69;5218903;27;20093;-89
2023/02/09 00:39:43;;;;;;;28.38;10.05;;;;;;;-2.84;59.00;102327.59;5220987;27;20117;-89
2023/02/09 00:42:10;;;;;;;24.87;10.02;;;;;;;-2.84;59.00;102332.69;5237431;27;20093;-89
2023/02/09 00:44:37;;;;;;;27.98;11.07;;;;;;;-2.96;59.00;102326.81;5236576;27;20077;-88
2023/02/09 00:47:03;;;;;;;30.67;11.52;;;;;;;-2.86;59.00;102318.94;5240015;27;20030;-88
2023/02/09 00:49:28;;;;;;;27.50;11.75;;;;;;;-2.83;59.01;102319.16;5235000;27;20117;-88
2023/02/09 00:51:54;;;;;;;26.15;11.43;;;;;;;-2.88;59.00;102314.53;5216116;27;20062;-89
2023/02/09 00:54:19;;;;;;;29.10;10.88;;;;;;;-2.92;58.99;102323.66;5234970;27;20115;-88
2023/02/09 00:56:45;;;;;;;23.15;9.88;;;;;;;-2.94;59.00;102321.81;5235456;27;20089;-88
2023/02/09 00:59:11;;;;;;;25.12;10.35;;;;;;;-2.81;59.01;102327.78;5217565;27;20054;-88
2023/02/09 01:01:37;;;;;;;27.40;10.52;;;;;;;-2.65;59.01;102316.88;5236104;27;20085;-88
2023/02/09 01:04:02;;;;;;;23.75;9.95;;;;;;;-2.93;59.00;102316.81;5235048;27;20084;-89
2023/02/09 01:06:28;;;;;;;23.75;10.10;;;;;;;-3.03;59.00;102313.59;5217509;27;20076;-89
2023/02/09 01:08:53;;;;;;;27.87;10.07;;;;;;;-2.97;59.00;102314.84;5199778;27;20128;-88
2023/02/09 01:11:19;;;;;;;25.85;10.43;;;;;;;-2.97;59.00;102317.41;5217241;27;20157;-88
2023/02/09 01:13:44;;;;;;;24.98;10.35;;;;;;;-2.94;59.00;102320.16;5217556;27;20062;-88
2023/02/09 01:16:12;;;;;;;26.77;11.23;;;;;;;-2.87;59.00;102311.22;5196487;27;20404;-88
2023/02/09 01:18:38;;;;;;;23.60;10.27;;;;;;;-2.99;58.99;102303.69;5230288;27;20908;-88
2023/02/09 01:21:19;;;;;;;21.95;10.40;;;;;;;-3.13;58.98;102304.47;5238592;27;20509;-88
2023/02/09 01:23:44;;;;;;;22.70;9.77;;;;;;;-3.26;58.98;102299.38;5236210;27;20076;-89
2023/02/09 01:26:11;;;;;;;23.45;9.60;;;;;;;-3.30;58.97;102302.53;5200080;27;20055;-89
2023/02/09 01:28:37;;;;;;;27.70;10.75;;;;;;;-3.34;58.97;102303.06;5236594;27;20062;-87
2023/02/09 01:31:03;;;;;;;26.33;10.50;;;;;;;-3.57;58.96;102297.38;5218045;27;20081;-89
2023/02/09 01:33:29;;;;;;;26.37;10.20;;;;;;;-3.51;58.96;102297.78;5217943;27;20066;-89
2023/02/09 01:35:58;;;;;;;26.62;11.30;;;;;;;-3.62;58.96;102297.84;5235775;27;20054;-89
2023/02/09 01:38:23;;;;;;;23.75;9.57;;;;;;;-3.62;58.96;102290.22;5218118;27;20077;-89
2023/02/09 01:40:49;;;;;;;25.77;10.73;;;;;;;-3.57;58.96;102291.41;5236711;27;20059;-89
2023/02/09 01:43:14;;;;;;;21.30;10.27;;;;;;;-3.60;58.96;102281.91;5221200;27;20072;-89
2023/02/09 01:46:09;;;;;;;24.27;11.15;;;;;;;-3.70;58.96;102279.53;5224798;27;20025;-89
2023/02/09 01:48:34;;;;;;;25.67;10.50;;;;;;;-3.59;58.96;102276.03;5248024;27;90889;-89
2023/02/09 01:51:00;;;;;;;28.02;10.52;;;;;;;-3.50;58.96;102278.31;5250014;27;20081;-90
2023/02/09 01:53:25;;;;;;;28.35;10.85;;;;;;;-3.41;58.96;102266.16;5240009;27;20092;-89
2023/02/09 01:55:54;;;;;;;22.58;10.25;;;;;;;-3.47;58.97;102263.22;5235970;27;20438;-89
2023/02/09 01:58:20;;;;;;;25.88;11.02;;;;;;;-3.51;58.97;102264.69;5217136;27;20030;-89
2023/02/09 02:00:46;;;;;;;28.15;11.38;;;;;;;-3.45;58.97;102254.91;5257452;27;20036;-89
2023/02/09 02:03:14;;;;;;;26.48;11.82;;;;;;;-3.51;58.96;102256.19;5237643;27;20054;-90
2023/02/09 02:05:41;;;;;;;24.10;10.25;;;;;;;-3.60;58.96;102256.44;5202595;27;20066;-90
2023/02/09 02:08:10;;;;;;;25.55;11.05;;;;;;;-3.58;58.96;102254.88;5237563;27;20119;-90
2023/02/09 02:10:35;;;;;;;28.20;10.38;;;;;;;-3.53;58.96;102248.44;5201895;27;20193;-89
2023/02/09 02:13:01;;;;;;;23.95;10.70;;;;;;;-3.54;58.96;102248.34;5218546;27;20210;-89
2023/02/09 02:15:30;;;;;;;30.33;10.25;;;;;;;-3.60;58.96;102250.47;5222124;27;20057;-89
2023/02/09 02:18:15;;;;;;;28.03;10.70;;;;;;;-3.72;58.95;102245.47;5238409;27;20058;-89
2023/02/09 02:20:49;;;;;;;29.00;10.02;;;;;;;-3.70;58.96;102249.00;5238447;27;20058;-90
2023/02/09 02:23:20;;;;;;;27.50;10.40;;;;;;;-3.76;58.95;102240.97;5221081;27;20065;-92
2023/02/09 02:25:54;;;;;;;23.38;9.30;;;;;;;-3.74;58.95;102242.84;5240173;27;20050;-91
2023/02/09 02:28:31;;;;;;;22.15;10.45;;;;;;;-3.84;58.95;102249.75;5239473;27;20063;-90
2023/02/09 02:31:34;;;;;;;26.50;11.20;;;;;;;-3.82;58.95;102249.06;5220101;27;20729;-90
2023/02/09 02:34:04;;;;;;;22.70;9.13;;;;;;;-3.77;58.95;102245.19;5219739;27;20030;-90
2023/02/09 02:36:54;;;;;;;25.67;10.32;;;;;;;-3.85;58.94;102237.81;5202708;27;20026;-89
2023/02/09 02:39:58;;;;;;;21.12;10.27;;;;;;;-3.68;58.96;102237.25;5220604;27;20065;-90
2023/02/09 02:42:50;;;;;;;25.33;9.88;;;;;;;-3.65;58.95;102239.13;5216085;27;20079;-90
2023/02/09 02:45:31;;;;;;;26.90;10.43;;;;;;;-3.89;58.95;102235.84;5238706;27;20031;-91
2023/02/09 02:48:20;;;;;;;26.12;10.90;;;;;;;-3.73;58.95;102233.53;5220471;27;20054;-91
2023/02/09 02:50:50;;;;;;;28.38;11.05;;;;;;;-3.81;58.94;102235.56;5217217;27;20076;-88
2023/02/09 02:53:17;;;;;;;21.87;9.50;;;;;;;-3.83;58.95;102234.59;5254956;27;20031;-88
2023/02/09 02:55:43;;;;;;;24.50;9.82;;;;;;;-3.81;58.95;102233.00;5257180;27;20073;-89
2023/02/09 02:58:08;;;;;;;28.55;11.45;;;;;;;-3.74;58.95;102239.41;5218953;27;20074;-89
2023/02/09 03:00:41;;;;;;;30.23;12.55;;;;;;;-3.79;58.94;102236.53;5218373;27;20114;-88
2023/02/09 03:03:13;;;;;;;30.48;10.18;;;;;;;-3.84;58.95;102225.19;5218462;27;20062;-88
2023/02/09 03:05:38;;;;;;;30.30;10.95;;;;;;;-3.79;58.94;102234.00;5236787;27;20418;-89
2023/02/09 03:08:04;;;;;;;24.95;10.73;;;;;;;-3.89;58.94;102230.75;5235811;27;20101;-88
2023/02/09 03:10:35;;;;;;;24.63;11.15;;;;;;;-3.94;58.93;102234.66;5218612;27;20058;-88
2023/02/09 03:13:03;;;;;;;27.02;10.68;;;;;;;-3.95;58.94;102235.47;5255519;27;20030;-88
2023/02/09 03:15:41;;;;;;;28.77;11.02;;;;;;;-3.86;58.94;102236.03;5242130;27;20018;-89
2023/02/09 03:18:11;;;;;;;28.33;10.85;;;;;;;-4.03;58.93;102233.25;5240417;27;20113;-89
2023/02/09 03:20:48;;;;;;;28.12;10.52;;;;;;;-3.96;58.94;102236.25;5218678;27;20081;-89
2023/02/09 03:23:18;;;;;;;33.13;11.00;;;;;;;-3.90;58.94;102239.19;5218457;27;20066;-88
2023/02/09 03:25:44;;;;;;;25.33;10.38;;;;;;;-4.05;58.93;102237.37;5201403;27;20070;-87
2023/02/09 03:28:23;;;;;;;25.20;10.23;;;;;;;-4.05;58.93;102239.91;5217961;27;20102;-88
2023/02/09 03:30:49;;;;;;;23.02;9.77;;;;;;;-4.06;58.93;102233.06;5218725;27;20058;-88
2023/02/09 03:33:19;;;;;;;25.77;10.20;;;;;;;-4.02;58.93;102234.19;5218598;27;20072;-88
2023/02/09 03:35:47;;;;;;;27.80;10.38;;;;;;;-3.99;58.94;102231.84;5218560;27;20117;-89
2023/02/09 03:38:13;;;;;;;26.40;9.90;;;;;;;-3.94;58.93;102232.12;5237385;27;20080;-88
2023/02/09 03:40:39;;;;;;;27.20;9.20;;;;;;;-3.91;58.95;102232.31;5237903;27;20105;-90
2023/02/09 03:43:05;;;;;;;27.25;9.50;;;;;;;-4.00;58.93;102235.16;5254333;27;20704;-89
2023/02/09 03:45:31;;;;;;;26.92;9.73;;;;;;;-3.90;58.95;102234.97;5254858;27;20120;-90
2023/02/09 03:47:57;;;;;;;28.10;10.80;;;;;;;-4.05;58.94;102237.37;5219820;27;20066;-89
2023/02/09 03:50:22;;;;;;;25.48;9.77;;;;;;;-4.08;58.93;102232.09;5254664;27;20080;-88
2023/02/09 03:52:47;;;;;;;23.12;9.30;;;;;;;-4.00;58.93;102235.16;5202481;27;20153;-88
2023/02/09 03:55:13;;;;;;;28.20;10.65;;;;;;;-4.05;58.94;102232.28;5218357;27;20109;-88
2023/02/09 03:57:40;;;;;;;34.05;10.63;;;;;;;-4.10;58.93;102238.72;5218031;27;20078;-88
2023/02/09 04:00:06;;;;;;;27.02;9.77;;;;;;;-4.22;58.92;102243.00;5235834;27;20069;-88
2023/02/09 04:02:32;;;;;;;26.00;9.38;;;;;;;-4.48;58.91;102241.25;5218572;27;20089;-87
2023/02/09 04:04:58;;;;;;;24.87;9.95;;;;;;;-4.38;58.91;102240.22;5254137;27;20080;-88
2023/02/09 04:07:23;;;;;;;25.90;9.68;;;;;;;-4.37;58.91;102239.44;5217601;27;23054;-88
2023/02/09 04:09:49;;;;;;;27.08;9.80;;;;;;;-4.67;58.89;102241.66;5235752;27;20194;-87
2023/02/09 04:12:14;;;;;;;26.17;9.57;;;;;;;-4.47;58.91;102242.12;5219573;27;20347;-88
2023/02/09 04:14:40;;;;;;;23.98;9.60;;;;;;;-4.39;58.91;102243.53;5218268;27;20097;-87
2023/02/09 04:17:05;;;;;;;24.35;10.60;;;;;;;-4.40;58.92;102246.84;5235560;27;20106;-87
2023/02/09 04:19:31;;;;;;;23.40;9.23;;;;;;;-4.44;58.91;102242.34;5218133;27;20116;-88
2023/02/09 04:21:57;;;;;;;23.23;9.45;;;;;;;-4.45;58.91;102243.13;5235962;27;20080;-88
2023/02/09 04:24:23;;;;;;;28.60;9.77;;;;;;;-4.22;58.92;102239.59;5253933;27;20121;-89
2023/02/09 04:26:48;;;;;;;27.60;10.48;;;;;;;-4.30;58.92;102239.06;5218433;27;20056;-90
2023/02/09 04:29:14;;;;;;;26.65;11.02;;;;;;;-4.18;58.92;102247.53;5220304;27;20117;-89
2023/02/09 04:31:39;;;;;;;26.48;10.00;;;;;;;-4.23;58.92;102243.78;5240540;27;20716;-89
2023/02/09 04:34:05;;;;;;;31.65;11.63;;;;;;;-4.20;58.92;102233.81;5237400;27;20045;-89
2023/02/09 04:36:30;;;;;;;29.02;10.80;;;;;;;-4.17;58.93;102234.03;5218230;27;20105;-89
2023/02/09 04:38:56;;;;;;;25.33;10.10;;;;;;;-4.17;58.92;102234.03;5219018;27;20412;-89
2023/02/09 04:41:22;;;;;;;25.37;10.73;;;;;;;-3.94;58.94;102235.56;5237685;27;20065;-90
2023/02/09 04:43:47;;;;;;;23.52;10.45;;;;;;;-4.24;58.92;102239.50;5221756;27;20141;-91
2023/02/09 04:46:14;;;;;;;32.22;11.90;;;;;;;-4.33;58.92;102238.84;5223291;27;20102;-90
2023/02/09 04:48:43;;;;;;;24.63;9.90;;;;;;;-4.27;58.92;102235.84;5244028;27;20065;-91
2023/02/09 04:51:08;;;;;;;26.17;10.07;;;;;;;-4.39;58.91;102220.66;5219320;27;20074;-91
2023/02/09 04:53:33;;;;;;;24.70;9.05;;;;;;;-4.41;58.91;102232.38;5237031;27;20112;-88
2023/02/09 04:55:59;;;;;;;29.48;10.73;;;;;;;-4.39;58.91;102226.63;5218637;27;20054;-89
2023/02/09 05:01:09;;;;;;;22.55;9.43;;;;;;;-4.46;58.91;102234.63;5236338;27;20457;-91
2023/02/09 05:03:35;;;;;;;24.73;9.70;;;;;;;-4.63;58.90;102230.03;5236074;27;20065;-92
2023/02/09 05:06:02;;;;;;;24.65;10.93;;;;;;;-4.41;58.92;102227.28;5218546;27;20061;-90
2023/02/09 05:08:28;;;;;;;28.50;10.50;;;;;;;-4.49;58.91;102236.06;5218080;27;20095;-89
2023/02/09 05:10:53;;;;;;;25.73;9.13;;;;;;;-4.38;58.91;102235.12;5237000;27;20059;-90
2023/02/09 05:13:20;;;;;;;21.45;9.85;;;;;;;-4.27;58.92;102230.75;5236733;27;20061;-88
2023/02/09 05:15:46;;;;;;;28.98;10.75;;;;;;;-4.48;58.91;102232.75;5218741;27;20080;-89
2023/02/09 05:18:12;;;;;;;25.73;9.73;;;;;;;-4.42;58.92;102233.16;5235827;27;20070;-89
2023/02/09 05:20:38;;;;;;;25.35;9.40;;;;;;;-4.40;58.92;102229.06;5217935;27;20123;-89
2023/02/09 05:23:04;;;;;;;26.10;10.63;;;;;;;-4.61;58.90;102240.28;5253727;27;20415;-89
2023/02/09 05:25:29;;;;;;;27.50;10.23;;;;;;;-4.69;58.90;102235.59;5236890;27;20055;-90
2023/02/09 05:27:55;;;;;;;28.20;9.82;;;;;;;-4.69;58.90;102239.78;5235969;27;20080;-90
2023/02/09 05:30:21;;;;;;;26.67;10.73;;;;;;;-4.75;58.89;102234.25;5218630;27;20149;-88
2023/02/09 05:32:49;;;;;;;19.35;8.93;;;;;;;-4.77;58.89;102236.69;5217955;27;20037;-88
2023/02/09 05:35:15;;;;;;;27.15;10.23;;;;;;;-4.56;58.91;102237.28;5253688;27;20076;-89
2023/02/09 05:37:40;;;;;;;29.30;10.60;;;;;;;-4.51;58.90;102250.31;5236265;27;20111;-88
2023/02/09 05:40:06;;;;;;;25.62;10.98;;;;;;;-4.44;58.90;102238.12;5218661;27;20568;-88
2023/02/09 05:42:32;;;;;;;24.35;10.32;;;;;;;-4.51;58.90;102243.56;5236758;27;20054;-93
2023/02/09 05:44:57;;;;;;;18.12;8.93;;;;;;;-4.37;58.91;102237.75;5239942;27;20466;-93
2023/02/09 05:47:24;;;;;;;23.73;10.02;;;;;;;-4.46;58.91;102238.81;5218905;27;20085;-92
2023/02/09 05:49:50;;;;;;;30.95;10.23;;;;;;;-4.61;58.90;102237.75;5237270;27;20080;-93
2023/02/09 05:52:16;;;;;;;24.95;9.93;;;;;;;-4.47;58.91;102240.47;5221258;27;20074;-93
2023/02/09 05:54:42;;;;;;;27.67;11.02;;;;;;;-4.45;58.91;102246.53;5222948;27;20054;-93
2023/02/09 05:57:07;;;;;;;32.20;10.52;;;;;;;-4.35;58.92;102248.03;5236550;27;20399;-93
2023/02/09 05:59:33;;;;;;;24.55;10.40;;;;;;;-4.35;58.92;102245.50;5236460;27;20120;-93
2023/02/09 06:01:58;;;;;;;25.35;10.60;;;;;;;-4.19;58.92;102244.88;5237970;27;20086;-93
2023/02/09 06:04:24;;;;;;;34.70;13.40;;;;;;;-4.19;58.93;102242.34;5221927;27;20373;-93
2023/02/09 06:06:50;;;;;;;39.38;14.82;;;;;;;-4.23;58.92;102238.72;5218784;27;20070;-93
2023/02/09 06:09:15;;;;;;;31.15;12.18;;;;;;;-4.21;58.92;102243.91;5218916;27;20088;-93
2023/02/09 06:11:41;;;;;;;33.00;12.23;;;;;;;-4.50;58.91;102247.88;5219589;27;20218;-94
2023/02/09 06:14:07;;;;;;;32.45;12.57;;;;;;;-4.64;58.89;102246.94;5202776;27;20414;-93
2023/02/09 06:16:33;;;;;;;32.10;11.12;;;;;;;-4.51;58.90;102243.56;5223926;27;20029;-93
2023/02/09 06:18:58;;;;;;;25.65;9.95;;;;;;;-4.41;58.91;102245.09;5224132;27;20085;-93
2023/02/09 06:21:23;;;;;;;29.15;10.52;;;;;;;-4.53;58.91;102246.78;5232602;27;20113;-92
2023/02/09 06:23:49;;;;;;;24.35;9.82;;;;;;;-4.44;58.90;102244.88;5230538;27;20113;-94
2023/02/09 06:26:15;;;;;;;31.27;10.52;;;;;;;-4.32;58.91;102240.63;5240038;27;20120;-93
2023/02/09 06:28:40;;;;;;;23.15;9.95;;;;;;;-4.46;58.91;102246.44;5218818;27;20104;-93
2023/02/09 06:31:07;;;;;;;27.45;10.52;;;;;;;-4.45;58.90;102240.56;5236415;27;20066;-92
2023/02/09 06:33:32;;;;;;;27.02;10.50;;;;;;;-4.41;58.92;102237.47;5236425;27;20054;-93
2023/02/09 06:35:58;;;;;;;25.02;10.20;;;;;;;-4.27;58.93;102241.78;5219753;27;20116;-92
2023/02/09 06:38:24;;;;;;;24.23;10.65;;;;;;;-4.37;58.91;102239.44;5239349;27;20113;-92
2023/02/09 06:40:49;;;;;;;29.42;10.50;;;;;;;-4.25;58.92;102237.72;5236335;27;20055;-91
2023/02/09 06:43:15;;;;;;;24.17;10.75;;;;;;;-4.02;58.94;102239.25;5218517;27;20074;-92
2023/02/09 06:45:41;;;;;;;26.60;10.90;;;;;;;-3.85;58.94;102236.16;5220405;27;20070;-92
2023/02/09 06:48:07;;;;;;;27.08;11.98;;;;;;;-3.56;58.96;102232.94;5238235;27;20795;-93
2023/02/09 06:50:34;;;;;;;28.38;10.95;;;;;;;-3.54;58.97;102238.16;5238307;27;20054;-93
2023/02/09 06:52:59;;;;;;;28.98;11.57;;;;;;;-3.73;58.95;102244.59;5237733;27;20100;-92
2023/02/09 06:55:26;;;;;;;29.77;10.68;;;;;;;-3.62;58.96;102242.75;5218525;27;20074;-93
2023/02/09 06:58:00;;;;;;;29.85;10.18;;;;;;;-3.61;58.96;102238.53;5216746;27;20034;-89
2023/02/09 07:00:26;;;;;;;26.15;10.57;;;;;;;-3.55;58.97;102224.56;5215612;27;20030;-84
2023/02/09 07:02:52;;;;;;;27.77;11.40;;;;;;;-3.33;58.98;102225.91;5252318;27;20058;-82
2023/02/09 07:05:18;;;;;;;37.00;11.02;;;;;;;-3.20;58.98;102224.22;5217197;27;20096;-83
2023/02/09 07:07:43;;;;;;;31.40;11.43;;;;;;;-3.00;58.99;102225.47;5216707;27;20066;-82
2023/02/09 07:10:10;;;;;;;34.90;13.05;;;;;;;-2.93;59.00;102225.06;5234423;27;20049;-84
2023/02/09 07:12:35;;;;;;;35.80;13.50;;;;;;;-2.63;59.01;102220.97;5217149;27;20050;-86
2023/02/09 07:15:01;;;;;;;35.58;12.35;;;;;;;-2.53;59.02;102224.97;5217458;27;20066;-85
2023/02/09 07:17:30;;;;;;;30.90;12.52;;;;;;;-2.47;59.03;102215.12;5235505;27;20150;-83
2023/02/09 07:19:55;;;;;;;33.13;13.88;;;;;;;-2.43;59.03;102213.63;5217817;27;20053;-86
2023/02/09 07:22:21;;;;;;;45.00;13.27;;;;;;;-2.13;59.05;102215.44;5217874;27;20050;-87
2023/02/09 07:24:47;;;;;;;47.15;17.42;;;;;;;-1.90;59.06;102215.09;5218210;27;20089;-87
2023/02/09 07:27:13;;;;;;;47.75;18.98;;;;;;;-1.83;59.06;102210.38;5218617;27;20112;-86
2023/02/09 07:29:40;;;;;;;52.58;19.23;;;;;;;-1.69;59.07;102212.03;5217986;27;20118;-88
2023/02/09 07:32:06;;;;;;;56.15;20.65;;;;;;;-1.49;59.08;102208.03;5218233;27;20077;-85
2023/02/09 07:34:33;;;;;;;62.08;23.55;;;;;;;-1.41;59.09;102211.94;5199453;27;20065;-85
2023/02/09 07:36:58;;;;;;;68.95;22.60;;;;;;;-1.44;59.08;102211.72;5235206;27;20069;-83
2023/02/09 07:39:24;;;;;;;47.22;18.35;;;;;;;-1.40;59.09;102218.78;5199334;27;20305;-86
2023/02/09 07:41:50;;;;;;;42.45;16.77;;;;;;;-1.01;59.12;102210.72;5217822;27;20054;-86
2023/02/09 07:44:16;;;;;;;41.53;16.67;;;;;;;-0.88;59.12;102212.28;5235519;27;20094;-88
2023/02/09 07:46:41;;;;;;;38.60;17.00;;;;;;;-0.73;59.12;102212.22;5218286;27;20066;-86
2023/02/09 07:49:06;;;;;;;40.78;17.23;;;;;;;-0.49;59.15;102210.94;5219700;27;20083;-87
2023/02/09 07:51:32;;;;;;;40.17;16.55;;;;;;;-0.32;59.15;102219.50;5220727;27;20062;-87
2023/02/09 07:53:58;;;;;;;38.78;15.57;;;;;;;-0.26;59.16;102212.13;5221671;27;20331;-88
2023/02/09 07:56:24;;;;;;;36.47;14.55;;;;;;;-0.06;59.17;102210.56;5226119;27;20069;-85
2023/02/09 07:58:49;;;;;;;36.63;14.27;;;;;;;-0.05;59.17;102202.09;5244226;27;20050;-84
2023/02/09 08:01:15;;;;;;;35.60;14.55;;;;;;;0.02;59.18;102200.75;5220627;27;20053;-88
2023/02/09 08:03:42;;;;;;;33.80;13.02;;;;;;;0.24;59.19;102195.87;5216984;27;20076;-85
2023/02/09 08:06:22;;;;;;;28.25;12.55;;;;;;;0.41;59.19;102195.00;5217104;27;20083;-85
2023/02/09 08:08:49;;;;;;;32.88;13.40;;;;;;;0.50;59.20;102194.56;5235712;27;20051;-86
2023/02/09 08:11:15;;;;;;;27.33;12.73;;;;;;;0.50;59.20;102202.25;5217465;27;20058;-84
2023/02/09 08:13:40;;;;;;;29.15;12.80;;;;;;;0.69;59.21;102197.16;5217955;27;20667;-86
2023/02/09 08:16:10;;;;;;;26.95;12.07;;;;;;;0.71;59.21;102189.56;5217294;27;20054;-88
2023/02/09 08:18:38;;;;;;;;;;;;;;;0.97;59.23;102189.09;5218486;27;21032;-87
2023/02/09 08:21:07;;;;;;;28.02;12.00;;;;;;;0.84;59.22;102182.53;5235733;27;19949;-88
2023/02/09 08:23:33;;;;;;;32.90;11.85;;;;;;;1.02;59.23;102189.31;5218045;27;20030;-88
2023/02/09 08:25:59;;;;;;;36.63;13.55;;;;;;;0.85;59.22;102183.41;5217370;27;20454;-83
2023/02/09 08:28:25;;;;;;;26.67;10.85;;;;;;;1.01;59.23;102177.28;5216619;27;20058;-82
2023/02/09 08:30:50;;;;;;;27.58;12.57;;;;;;;1.36;59.25;102182.31;5216587;27;20062;-84
2023/02/09 08:33:16;;;;;;;24.50;12.15;;;;;;;1.39;59.24;102182.44;5234402;27;20105;-84
2023/02/09 08:35:41;;;;;;;28.90;11.68;;;;;;;1.31;59.24;102181.22;5234601;27;20406;-83
2023/02/09 08:38:07;;;;;;;26.17;12.13;;;;;;;1.42;59.26;102179.13;5216466;27;20050;-83
2023/02/09 08:40:35;;;;;;;30.37;12.02;;;;;;;1.45;59.25;102175.03;5234100;27;20395;-85
2023/02/09 08:43:00;;;;;;;26.52;12.02;;;;;;;1.57;59.26;102182.37;5199983;27;20058;-85
2023/02/09 08:45:26;;;;;;;28.90;13.52;;;;;;;1.65;59.26;102182.69;5234562;27;20100;-86
2023/02/09 08:48:00;;;;;;;34.40;13.77;;;;;;;1.79;59.28;102173.91;5217434;27;20165;-87
2023/02/09 08:50:26;;;;;;;35.75;13.65;;;;;;;1.85;59.28;102176.72;5216774;27;20073;-85
2023/02/09 08:52:51;;;;;;;30.77;13.40;;;;;;;1.85;59.28;102181.84;5216578;27;20105;-84
2023/02/09 08:55:17;;;;;;;32.22;13.93;;;;;;;1.95;59.28;102178.87;5216736;27;20105;-86
2023/02/09 08:57:42;;;;;;;33.22;13.62;;;;;;;2.03;59.28;102172.34;5216764;27;20062;-87
2023/02/09 09:00:11;;;;;;;29.50;12.90;;;;;;;2.22;59.30;102166.28;5217273;27;20085;-85
2023/02/09 09:02:36;;;;;;;31.23;13.57;;;;;;;2.22;59.30;102166.28;5218554;27;20054;-87
2023/02/09 09:05:01;;;;;;;28.15;13.00;;;;;;;2.24;59.30;102162.06;5216925;27;20062;-87
2023/02/09 09:07:27;;;;;;;34.83;13.50;;;;;;;2.43;59.32;102164.56;5216864;27;20058;-87
2023/02/09 09:09:52;;;;;;;33.50;14.20;;;;;;;2.63;59.32;102164.47;5216684;27;20068;-86
2023/02/09 09:12:18;;;;;;;28.48;14.10;;;;;;;2.46;59.31;102166.38;5217086;27;20089;-85
2023/02/09 09:14:43;;;;;;;29.80;12.80;;;;;;;2.50;59.32;102163.13;5217059;27;20058;-86
2023/02/09 09:17:09;;;;;;;29.10;12.27;;;;;;;2.71;59.33;102165.66;5216967;27;20102;-85
2023/02/09 09:19:35;;;;;;;31.77;12.73;;;;;;;3.00;59.34;102172.75;5216625;27;20070;-87
2023/02/09 09:22:02;;;;;;;28.85;12.70;;;;;;;2.91;59.34;102172.44;5215678;27;20081;-85
2023/02/09 09:24:29;;;;;;;28.48;12.98;;;;;;;3.03;59.35;102174.56;5235383;27;20109;-82
2023/02/09 09:26:54;;;;;;;25.92;11.43;;;;;;;3.04;59.35;102173.75;5234316;27;20125;-85
2023/02/09 09:29:22;;;;;;;25.12;11.02;;;;;;;3.09;59.36;102185.13;5234285;27;20113;-83
2023/02/09 09:31:48;;;;;;;35.17;13.18;;;;;;;3.03;59.35;102174.56;5217470;27;20153;-84
2023/02/09 09:34:13;;;;;;;23.85;11.32;;;;;;;3.20;59.36;102168.34;5216620;27;20101;-84
2023/02/09 09:36:38;;;;;;;30.95;12.05;;;;;;;3.31;59.36;102182.50;5218436;27;20084;-83
2023/02/09 09:39:04;;;;;;;25.75;11.77;;;;;;;3.41;59.37;102172.53;5251793;27;20054;-83
2023/02/09 09:41:36;;;;;;;25.50;11.75;;;;;;;3.30;59.35;102172.13;5233731;27;20117;-83
2023/02/09 09:44:03;;;;;;;26.50;12.05;;;;;;;3.54;59.38;102175.59;5214878;27;20112;-82
2023/02/09 09:46:35;;;;;;;28.95;12.68;;;;;;;3.60;59.37;102169.81;5231737;27;20074;-82
2023/02/09 09:49:00;;;;;;;31.40;14.82;;;;;;;3.60;59.37;102173.25;5214482;27;20116;-85
2023/02/09 09:51:40;;;;;;;28.15;12.77;;;;;;;3.75;59.38;102169.44;5231712;27;20093;-83
2023/02/09 09:54:16;;;;;;;;;;;;;;;3.87;59.39;102175.03;5214559;27;20076;-83
2023/02/09 09:56:41;;;;;;;25.25;10.32;;;;;;;4.05;59.41;102173.06;5196913;27;20669;-85
2023/02/09 09:59:17;;;;;;;23.70;11.27;;;;;;;4.17;59.41;102177.75;5196723;27;20065;-82
2023/02/09 10:01:42;;;;;;;25.80;10.20;;;;;;;4.11;59.40;102173.25;5232831;27;20077;-83
2023/02/09 10:04:12;;;;;;;21.67;10.70;;;;;;;4.13;59.41;102173.31;5231781;27;20059;-83
2023/02/09 10:06:39;;;;;;;24.30;10.80;;;;;;;4.29;59.42;102162.69;5214664;27;20069;-81
2023/02/09 10:09:14;;;;;;;24.35;11.80;;;;;;;4.23;59.42;102167.62;5231665;27;20431;-82
2023/02/09 10:12:15;;;;;;;24.58;10.82;;;;;;;4.18;59.41;102167.47;5213734;27;20062;-83
2023/02/09 10:14:43;;;;;;;22.15;10.02;;;;;;;4.22;59.42;102158.13;5209004;27;20080;-81
2023/02/09 10:17:09;;;;;;;27.67;10.98;;;;;;;4.21;59.42;102164.12;5233143;27;20474;-83
2023/02/09 10:19:35;;;;;;;20.75;10.23;;;;;;;4.45;59.42;102159.75;5213861;27;20046;-83
2023/02/09 10:22:01;;;;;;;21.00;10.60;;;;;;;4.50;59.43;102155.63;5249956;27;20062;-83
2023/02/09 10:24:29;;;;;;;21.17;9.55;;;;;;;4.74;59.45;102150.34;5232986;27;20066;-82
2023/02/09 10:27:11;;;;;;;17.25;9.45;;;;;;;4.82;59.45;102141.13;5196968;27;20517;-82
2023/02/09 10:29:37;;;;;;;22.58;9.50;;;;;;;4.94;59.46;102143.16;5215012;27;20395;-83
2023/02/09 10:32:16;;;;;;;22.80;10.65;;;;;;;5.01;59.46;102145.13;5215110;27;20058;-83
2023/02/09 10:34:44;;;;;;;18.62;9.07;;;;;;;5.13;59.47;102137.72;5215022;27;20082;-84
2023/02/09 10:37:17;;;;;;;20.02;9.13;;;;;;;5.10;59.46;102134.16;5211435;27;20062;-82
2023/02/09 10:39:43;;;;;;;18.12;9.60;;;;;;;5.07;59.46;102129.78;5229044;27;20104;-83
2023/02/09 10:42:30;;;;;;;18.12;8.75;;;;;;;5.28;59.47;102126.94;5214845;27;20558;-82
2023/02/09 10:44:57;;;;;;;19.92;8.80;;;;;;;5.10;59.46;102131.59;5216206;27;20065;-81
2023/02/09 10:47:26;;;;;;;20.30;9.32;;;;;;;5.40;59.48;102116.06;5197391;27;20072;-84
2023/02/09 10:49:53;;;;;;;23.08;10.15;;;;;;;5.35;59.48;102112.47;5197515;27;20054;-84
2023/02/09 10:52:23;;;;;;;21.92;10.43;;;;;;;5.28;59.47;102100.25;5197475;27;20172;-83
2023/02/09 10:54:55;;;;;;;19.62;9.77;;;;;;;5.51;59.49;102105.19;5231101;27;20063;-82
2023/02/09 10:57:25;;;;;;;21.95;10.20;;;;;;;5.22;59.46;102106.12;5232866;27;20065;-82
2023/02/09 10:59:58;;;;;;;17.80;9.13;;;;;;;5.45;59.48;102093.84;5214927;27;20093;-82
2023/02/09 11:02:47;;;;;;;16.70;7.95;;;;;;;5.44;59.48;102095.53;5232734;27;20415;-79
2023/02/09 11:05:21;;;;;;;17.73;8.43;;;;;;;5.56;59.49;102087.22;5207289;27;20066;-81
2023/02/09 11:07:54;;;;;;;22.23;9.35;;;;;;;5.63;59.50;102089.12;5214598;27;20104;-83
2023/02/09 11:10:20;;;;;;;19.92;9.43;;;;;;;5.79;59.50;102085.22;5232717;27;20399;-83
2023/02/09 11:12:45;;;;;;;19.15;9.35;;;;;;;5.95;59.51;102087.37;5214961;27;20072;-82
2023/02/09 11:15:12;;;;;;;19.33;9.18;;;;;;;5.79;59.50;102082.62;5234769;27;20057;-83
2023/02/09 11:17:41;;;;;;;19.02;9.30;;;;;;;5.79;59.50;102080.94;5232747;27;20085;-84
2023/02/09 11:20:34;;;;;;;15.65;7.97;;;;;;;5.68;59.49;102065.97;5214940;27;20900;-83
2023/02/09 11:23:20;;;;;;;15.50;7.25;;;;;;;5.79;59.50;102065.41;5195717;27;20475;-83